sensor_id;sensor_type;location;lat;lon;timestamp;temperature;humidity
37274;DHT22;23161;51.250;5.554;2023-12-20T00:01:51;7.20;99.90
37274;DHT22;23161;51.250;5.554;2023-12-20T00:04:16;7.20;99.90
37274;DHT22;23161;51.250;5.554;2023-12-20T00:06:42;7.10;99.90
37274;DHT22;23161;51.250;5.554;2023-12-20T00:09:08;7.00;99.90
37274;DHT22;23161;51.250;5.554;2023-12-20T00:14:00;6.90;99.90
37274;DHT22;23161;51.250;5.554;2023-12-20T00:18:52;6.70;99.90
37274;DHT22;23161;51.250;5.554;2023-12-20T00:26:10;6.50;99.90
37274;DHT22;23161;51.250;5.554;2023-12-20T00:31:03;6.30;99.90
37274;DHT22;23161;51.250;5.554;2023-12-20T00:33:30;6.30;99.90
37274;DHT22;23161;51.250;5.554;2023-12-20T00:35:56;6.30;99.90
37274;DHT22;23161;51.250;5.554;2023-12-20T00:40:48;6.30;99.90
37274;DHT22;23161;51.250;5.554;2023-12-20T00:43:15;6.30;99.90
37274;DHT22;23161;51.250;5.554;2023-12-20T00:45:41;6.20;99.90
37274;DHT22;23161;51.250;5.554;2023-12-20T00:48:07;6.40;99.90
37274;DHT22;23161;51.250;5.554;2023-12-20T00:52:59;6.20;99.90
37274;DHT22;23161;51.250;5.554;2023-12-20T00:55:25;6.10;99.90
37274;DHT22;23161;51.250;5.554;2023-12-20T00:57:50;6.10;99.90
37274;DHT22;23161;51.250;5.554;2023-12-20T01:00:16;6.20;99.90
37274;DHT22;23161;51.250;5.554;2023-12-20T01:02:42;5.90;99.90
37274;DHT22;23161;51.250;5.554;2023-12-20T01:05:09;6.00;99.90
37274;DHT22;23161;51.250;5.554;2023-12-20T01:07:35;5.90;99.90
37274;DHT22;23161;51.250;5.554;2023-12-20T01:10:01;5.80;99.90
37274;DHT22;23161;51.250;5.554;2023-12-20T01:14:53;5.80;99.90
37274;DHT22;23161;51.250;5.554;2023-12-20T01:17:19;5.80;99.90
37274;DHT22;23161;51.250;5.554;2023-12-20T01:22:11;5.80;99.90
37274;DHT22;23161;51.250;5.554;2023-12-20T01:27:03;5.70;99.90
37274;DHT22;23161;51.250;5.554;2023-12-20T01:31:55;5.70;99.90
37274;DHT22;23161;51.250;5.554;2023-12-20T01:36:47;6.20;99.90
37274;DHT22;23161;51.250;5.554;2023-12-20T01:41:39;5.60;99.90
37274;DHT22;23161;51.250;5.554;2023-12-20T01:48:57;5.60;99.90
37274;DHT22;23161;51.250;5.554;2023-12-20T01:53:50;5.50;99.90
37274;DHT22;23161;51.250;5.554;2023-12-20T01:56:16;5.60;99.90
37274;DHT22;23161;51.250;5.554;2023-12-20T01:58:46;5.60;99.90
37274;DHT22;23161;51.250;5.554;2023-12-20T02:01:13;6.00;99.90
37274;DHT22;23161;51.250;5.554;2023-12-20T02:03:42;5.60;99.90
37274;DHT22;23161;51.250;5.554;2023-12-20T02:06:09;5.70;99.90
37274;DHT22;23161;51.250;5.554;2023-12-20T02:08:35;5.80;99.90
37274;DHT22;23161;51.250;5.554;2023-12-20T02:11:01;5.70;99.90
37274;DHT22;23161;51.250;5.554;2023-12-20T02:13:27;5.80;99.90
37274;DHT22;23161;51.250;5.554;2023-12-20T02:15:54;5.80;99.90
37274;DHT22;23161;51.250;5.554;2023-12-20T02:18:20;5.70;99.90
37274;DHT22;23161;51.250;5.554;2023-12-20T02:20:46;5.70;99.90
37274;DHT22;23161;51.250;5.554;2023-12-20T02:25:38;5.90;99.90
37274;DHT22;23161;51.250;5.554;2023-12-20T02:30:30;5.80;99.90
37274;DHT22;23161;51.250;5.554;2023-12-20T02:32:56;5.80;99.90
37274;DHT22;23161;51.250;5.554;2023-12-20T02:37:49;5.70;99.90
37274;DHT22;23161;51.250;5.554;2023-12-20T02:40:15;5.70;99.90
37274;DHT22;23161;51.250;5.554;2023-12-20T02:42:40;5.50;99.90
37274;DHT22;23161;51.250;5.554;2023-12-20T02:45:07;5.60;99.90
37274;DHT22;23161;51.250;5.554;2023-12-20T02:47:32;5.50;99.90
37274;DHT22;23161;51.250;5.554;2023-12-20T02:52:25;5.40;99.90
37274;DHT22;23161;51.250;5.554;2023-12-20T02:54:51;5.20;99.90
37274;DHT22;23161;51.250;5.554;2023-12-20T02:59:43;5.40;99.90
37274;DHT22;23161;51.250;5.554;2023-12-20T03:02:08;5.40;99.90
37274;DHT22;23161;51.250;5.554;2023-12-20T03:04:35;5.40;99.90
37274;DHT22;23161;51.250;5.554;2023-12-20T03:07:01;5.40;99.90
37274;DHT22;23161;51.250;5.554;2023-12-20T03:09:26;5.40;99.90
37274;DHT22;23161;51.250;5.554;2023-12-20T03:14:18;5.50;99.90
37274;DHT22;23161;51.250;5.554;2023-12-20T03:16:51;5.60;99.90
37274;DHT22;23161;51.250;5.554;2023-12-20T03:19:18;5.50;99.90
37274;DHT22;23161;51.250;5.554;2023-12-20T03:21:45;5.50;99.90
37274;DHT22;23161;51.250;5.554;2023-12-20T03:26:37;5.50;99.90
37274;DHT22;23161;51.250;5.554;2023-12-20T03:29:02;5.50;99.90
37274;DHT22;23161;51.250;5.554;2023-12-20T03:31:28;5.50;99.90
37274;DHT22;23161;51.250;5.554;2023-12-20T03:33:54;5.60;99.90
37274;DHT22;23161;51.250;5.554;2023-12-20T03:38:46;5.50;99.90
37274;DHT22;23161;51.250;5.554;2023-12-20T03:41:12;5.50;99.90
37274;DHT22;23161;51.250;5.554;2023-12-20T03:43:38;5.40;99.90
37274;DHT22;23161;51.250;5.554;2023-12-20T03:48:33;5.60;99.90
37274;DHT22;23161;51.250;5.554;2023-12-20T03:50:59;5.60;99.90
37274;DHT22;23161;51.250;5.554;2023-12-20T03:55:51;5.50;99.90
37274;DHT22;23161;51.250;5.554;2023-12-20T04:00:44;5.50;99.90
37274;DHT22;23161;51.250;5.554;2023-12-20T04:05:42;5.60;99.90
37274;DHT22;23161;51.250;5.554;2023-12-20T04:10:34;5.50;99.90
37274;DHT22;23161;51.250;5.554;2023-12-20T04:13:00;5.40;99.90
37274;DHT22;23161;51.250;5.554;2023-12-20T04:17:52;5.60;99.90
37274;DHT22;23161;51.250;5.554;2023-12-20T04:20:18;5.70;99.90
37274;DHT22;23161;51.250;5.554;2023-12-20T04:27:37;5.60;99.90
37274;DHT22;23161;51.250;5.554;2023-12-20T04:30:03;5.60;99.90
37274;DHT22;23161;51.250;5.554;2023-12-20T04:34:55;5.80;99.90
37274;DHT22;23161;51.250;5.554;2023-12-20T04:37:21;5.80;99.90
37274;DHT22;23161;51.250;5.554;2023-12-20T04:42:14;5.90;99.90
37274;DHT22;23161;51.250;5.554;2023-12-20T04:44:40;5.80;99.90
37274;DHT22;23161;51.250;5.554;2023-12-20T04:47:06;5.80;99.90
37274;DHT22;23161;51.250;5.554;2023-12-20T04:51:58;5.80;99.90
37274;DHT22;23161;51.250;5.554;2023-12-20T04:56:50;6.00;99.90
37274;DHT22;23161;51.250;5.554;2023-12-20T05:01:42;6.00;99.90
37274;DHT22;23161;51.250;5.554;2023-12-20T05:04:08;6.10;99.90
37274;DHT22;23161;51.250;5.554;2023-12-20T05:06:34;6.10;99.90
37274;DHT22;23161;51.250;5.554;2023-12-20T05:11:26;6.10;99.90
37274;DHT22;23161;51.250;5.554;2023-12-20T05:13:52;6.10;99.90
37274;DHT22;23161;51.250;5.554;2023-12-20T05:16:18;6.10;99.90
37274;DHT22;23161;51.250;5.554;2023-12-20T05:18:45;6.10;99.90
37274;DHT22;23161;51.250;5.554;2023-12-20T05:21:11;6.20;99.90
37274;DHT22;23161;51.250;5.554;2023-12-20T05:23:45;6.10;99.90
37274;DHT22;23161;51.250;5.554;2023-12-20T05:26:12;6.20;99.90
37274;DHT22;23161;51.250;5.554;2023-12-20T05:28:38;6.20;99.90
37274;DHT22;23161;51.250;5.554;2023-12-20T05:31:04;6.20;99.90
37274;DHT22;23161;51.250;5.554;2023-12-20T05:35:56;6.20;99.90
37274;DHT22;23161;51.250;5.554;2023-12-20T05:40:48;6.50;99.90
37274;DHT22;23161;51.250;5.554;2023-12-20T05:43:13;6.20;99.90
37274;DHT22;23161;51.250;5.554;2023-12-20T05:48:06;6.20;99.90
37274;DHT22;23161;51.250;5.554;2023-12-20T05:50:32;6.10;99.90
37274;DHT22;23161;51.250;5.554;2023-12-20T05:55:24;6.00;99.90
37274;DHT22;23161;51.250;5.554;2023-12-20T05:57:50;5.90;99.90
37274;DHT22;23161;51.250;5.554;2023-12-20T06:00:16;5.90;99.90
37274;DHT22;23161;51.250;5.554;2023-12-20T06:02:42;5.70;99.90
37274;DHT22;23161;51.250;5.554;2023-12-20T06:05:08;5.80;99.90
37274;DHT22;23161;51.250;5.554;2023-12-20T06:07:34;5.70;99.90
37274;DHT22;23161;51.250;5.554;2023-12-20T06:10:00;5.70;99.90
37274;DHT22;23161;51.250;5.554;2023-12-20T06:12:26;5.70;99.90
37274;DHT22;23161;51.250;5.554;2023-12-20T06:14:53;5.60;99.90
37274;DHT22;23161;51.250;5.554;2023-12-20T06:17:19;5.60;99.90
37274;DHT22;23161;51.250;5.554;2023-12-20T06:19:45;5.50;99.90
37274;DHT22;23161;51.250;5.554;2023-12-20T06:22:17;5.50;99.90
37274;DHT22;23161;51.250;5.554;2023-12-20T06:24:42;5.50;99.90
37274;DHT22;23161;51.250;5.554;2023-12-20T06:27:08;5.50;99.90
37274;DHT22;23161;51.250;5.554;2023-12-20T06:29:34;5.40;99.90
37274;DHT22;23161;51.250;5.554;2023-12-20T06:32:00;5.40;99.90
37274;DHT22;23161;51.250;5.554;2023-12-20T06:34:26;5.50;99.90
37274;DHT22;23161;51.250;5.554;2023-12-20T06:36:51;5.50;99.90
37274;DHT22;23161;51.250;5.554;2023-12-20T06:39:17;5.40;99.90
37274;DHT22;23161;51.250;5.554;2023-12-20T06:41:43;5.40;99.90
37274;DHT22;23161;51.250;5.554;2023-12-20T06:44:09;5.40;99.90
37274;DHT22;23161;51.250;5.554;2023-12-20T06:46:35;5.30;99.90
37274;DHT22;23161;51.250;5.554;2023-12-20T06:49:01;5.30;99.90
37274;DHT22;23161;51.250;5.554;2023-12-20T06:51:26;5.30;99.90
37274;DHT22;23161;51.250;5.554;2023-12-20T06:53:52;5.30;99.90
37274;DHT22;23161;51.250;5.554;2023-12-20T06:56:18;5.20;99.90
37274;DHT22;23161;51.250;5.554;2023-12-20T06:58:44;5.20;99.90
37274;DHT22;23161;51.250;5.554;2023-12-20T07:01:14;5.20;99.90
37274;DHT22;23161;51.250;5.554;2023-12-20T07:03:40;5.20;99.90
37274;DHT22;23161;51.250;5.554;2023-12-20T07:06:07;5.20;99.90
37274;DHT22;23161;51.250;5.554;2023-12-20T07:08:33;5.60;99.90
37274;DHT22;23161;51.250;5.554;2023-12-20T07:10:59;5.10;99.90
37274;DHT22;23161;51.250;5.554;2023-12-20T07:13:25;5.10;99.90
37274;DHT22;23161;51.250;5.554;2023-12-20T07:15:51;5.10;99.90
37274;DHT22;23161;51.250;5.554;2023-12-20T07:18:17;6.80;99.90
37274;DHT22;23161;51.250;5.554;2023-12-20T07:20:43;5.10;99.90
37274;DHT22;23161;51.250;5.554;2023-12-20T07:23:09;5.20;99.90
37274;DHT22;23161;51.250;5.554;2023-12-20T07:25:34;5.10;99.90
37274;DHT22;23161;51.250;5.554;2023-12-20T07:28:00;6.70;99.90
37274;DHT22;23161;51.250;5.554;2023-12-20T07:30:26;5.00;99.90
37274;DHT22;23161;51.250;5.554;2023-12-20T07:35:18;5.10;99.90
37274;DHT22;23161;51.250;5.554;2023-12-20T07:40:11;5.10;99.90
37274;DHT22;23161;51.250;5.554;2023-12-20T07:42:36;5.10;99.90
37274;DHT22;23161;51.250;5.554;2023-12-20T07:45:03;5.20;99.90
37274;DHT22;23161;51.250;5.554;2023-12-20T07:47:29;5.20;99.90
37274;DHT22;23161;51.250;5.554;2023-12-20T07:49:54;5.20;99.90
37274;DHT22;23161;51.250;5.554;2023-12-20T07:52:20;5.20;99.90
37274;DHT22;23161;51.250;5.554;2023-12-20T07:54:48;5.20;99.90
37274;DHT22;23161;51.250;5.554;2023-12-20T07:57:14;5.30;99.90
37274;DHT22;23161;51.250;5.554;2023-12-20T07:59:39;5.20;99.90
37274;DHT22;23161;51.250;5.554;2023-12-20T08:02:05;5.30;99.90
37274;DHT22;23161;51.250;5.554;2023-12-20T08:04:32;5.30;99.90
37274;DHT22;23161;51.250;5.554;2023-12-20T08:06:58;5.40;99.90
37274;DHT22;23161;51.250;5.554;2023-12-20T08:09:24;5.50;99.90
37274;DHT22;23161;51.250;5.554;2023-12-20T08:11:50;5.60;99.90
37274;DHT22;23161;51.250;5.554;2023-12-20T08:14:15;5.60;99.90
37274;DHT22;23161;51.250;5.554;2023-12-20T08:16:41;5.70;99.90
37274;DHT22;23161;51.250;5.554;2023-12-20T08:19:07;5.70;99.90
37274;DHT22;23161;51.250;5.554;2023-12-20T08:21:33;5.70;99.90
37274;DHT22;23161;51.250;5.554;2023-12-20T08:23:59;5.80;99.90
37274;DHT22;23161;51.250;5.554;2023-12-20T08:26:26;5.80;99.90
37274;DHT22;23161;51.250;5.554;2023-12-20T08:28:52;5.70;99.90
37274;DHT22;23161;51.250;5.554;2023-12-20T08:31:18;5.80;99.90
37274;DHT22;23161;51.250;5.554;2023-12-20T08:33:45;5.80;99.90
37274;DHT22;23161;51.250;5.554;2023-12-20T08:36:12;5.90;99.90
37274;DHT22;23161;51.250;5.554;2023-12-20T08:38:38;5.90;99.90
37274;DHT22;23161;51.250;5.554;2023-12-20T08:41:04;6.00;99.90
37274;DHT22;23161;51.250;5.554;2023-12-20T08:43:36;6.00;99.90
37274;DHT22;23161;51.250;5.554;2023-12-20T08:46:02;6.00;99.90
37274;DHT22;23161;51.250;5.554;2023-12-20T08:48:28;6.00;99.90
37274;DHT22;23161;51.250;5.554;2023-12-20T08:50:54;6.30;99.90
37274;DHT22;23161;51.250;5.554;2023-12-20T08:53:20;6.10;99.90
37274;DHT22;23161;51.250;5.554;2023-12-20T08:55:46;6.20;99.90
37274;DHT22;23161;51.250;5.554;2023-12-20T08:58:12;6.20;99.90
37274;DHT22;23161;51.250;5.554;2023-12-20T09:00:38;6.20;99.90
37274;DHT22;23161;51.250;5.554;2023-12-20T09:03:04;6.50;99.90
37274;DHT22;23161;51.250;5.554;2023-12-20T09:05:30;6.50;99.90
37274;DHT22;23161;51.250;5.554;2023-12-20T09:07:56;6.20;99.90
37274;DHT22;23161;51.250;5.554;2023-12-20T09:10:22;6.20;99.90
37274;DHT22;23161;51.250;5.554;2023-12-20T09:12:50;6.30;99.90
37274;DHT22;23161;51.250;5.554;2023-12-20T09:15:16;6.30;99.90
37274;DHT22;23161;51.250;5.554;2023-12-20T09:17:42;6.30;99.90
37274;DHT22;23161;51.250;5.554;2023-12-20T09:20:09;6.30;99.90
37274;DHT22;23161;51.250;5.554;2023-12-20T09:22:35;6.30;99.90
37274;DHT22;23161;51.250;5.554;2023-12-20T09:25:01;6.30;99.90
37274;DHT22;23161;51.250;5.554;2023-12-20T09:27:27;6.40;99.90
37274;DHT22;23161;51.250;5.554;2023-12-20T09:29:53;6.50;99.90
37274;DHT22;23161;51.250;5.554;2023-12-20T09:32:19;6.60;99.90
37274;DHT22;23161;51.250;5.554;2023-12-20T09:34:48;6.50;99.90
37274;DHT22;23161;51.250;5.554;2023-12-20T09:37:14;6.50;99.90
37274;DHT22;23161;51.250;5.554;2023-12-20T09:39:40;6.50;99.90
37274;DHT22;23161;51.250;5.554;2023-12-20T09:42:06;6.60;99.90
37274;DHT22;23161;51.250;5.554;2023-12-20T09:44:34;6.60;99.90
37274;DHT22;23161;51.250;5.554;2023-12-20T09:47:03;6.70;99.90
37274;DHT22;23161;51.250;5.554;2023-12-20T09:49:30;6.80;99.90
37274;DHT22;23161;51.250;5.554;2023-12-20T09:51:56;6.80;99.90
37274;DHT22;23161;51.250;5.554;2023-12-20T09:54:23;6.80;99.90
37274;DHT22;23161;51.250;5.554;2023-12-20T09:56:50;6.80;99.90
37274;DHT22;23161;51.250;5.554;2023-12-20T09:59:16;6.80;99.90
37274;DHT22;23161;51.250;5.554;2023-12-20T10:01:43;6.80;99.90
37274;DHT22;23161;51.250;5.554;2023-12-20T10:04:11;6.80;99.90
37274;DHT22;23161;51.250;5.554;2023-12-20T10:06:41;6.80;99.90
37274;DHT22;23161;51.250;5.554;2023-12-20T10:09:07;6.80;99.90
37274;DHT22;23161;51.250;5.554;2023-12-20T10:11:35;6.90;99.90
37274;DHT22;23161;51.250;5.554;2023-12-20T10:14:03;6.90;99.90
37274;DHT22;23161;51.250;5.554;2023-12-20T10:16:30;7.00;99.90
37274;DHT22;23161;51.250;5.554;2023-12-20T10:18:56;6.90;99.90
37274;DHT22;23161;51.250;5.554;2023-12-20T10:21:23;7.20;99.90
37274;DHT22;23161;51.250;5.554;2023-12-20T10:23:50;7.00;99.90
37274;DHT22;23161;51.250;5.554;2023-12-20T10:26:19;7.00;99.90
37274;DHT22;23161;51.250;5.554;2023-12-20T10:28:49;7.10;99.90
37274;DHT22;23161;51.250;5.554;2023-12-20T10:31:29;6.90;99.90
37274;DHT22;23161;51.250;5.554;2023-12-20T10:33:59;7.00;99.90
37274;DHT22;23161;51.250;5.554;2023-12-20T10:36:29;7.10;99.90
37274;DHT22;23161;51.250;5.554;2023-12-20T10:38:56;7.00;99.90
37274;DHT22;23161;51.250;5.554;2023-12-20T10:41:29;7.10;99.90
37274;DHT22;23161;51.250;5.554;2023-12-20T10:44:00;7.10;99.90
37274;DHT22;23161;51.250;5.554;2023-12-20T10:46:29;7.10;99.90
37274;DHT22;23161;51.250;5.554;2023-12-20T10:48:56;7.10;99.90
37274;DHT22;23161;51.250;5.554;2023-12-20T10:51:23;7.10;99.90
37274;DHT22;23161;51.250;5.554;2023-12-20T10:53:53;7.20;99.90
37274;DHT22;23161;51.250;5.554;2023-12-20T10:56:20;7.20;99.90
37274;DHT22;23161;51.250;5.554;2023-12-20T10:58:52;7.20;99.90
37274;DHT22;23161;51.250;5.554;2023-12-20T11:01:18;7.20;99.90
37274;DHT22;23161;51.250;5.554;2023-12-20T11:03:48;7.20;99.90
37274;DHT22;23161;51.250;5.554;2023-12-20T11:09:29;7.20;99.90
37274;DHT22;23161;51.250;5.554;2023-12-20T11:12:16;7.20;99.90
37274;DHT22;23161;51.250;5.554;2023-12-20T11:17:14;7.30;99.90
37274;DHT22;23161;51.250;5.554;2023-12-20T11:22:29;7.30;99.90
37274;DHT22;23161;51.250;5.554;2023-12-20T11:25:00;7.30;99.90
37274;DHT22;23161;51.250;5.554;2023-12-20T11:27:27;7.10;99.90
37274;DHT22;23161;51.250;5.554;2023-12-20T11:29:56;7.20;99.90
37274;DHT22;23161;51.250;5.554;2023-12-20T11:34:58;7.20;99.90
37274;DHT22;23161;51.250;5.554;2023-12-20T11:37:30;7.30;99.90
37274;DHT22;23161;51.250;5.554;2023-12-20T11:40:07;7.20;99.90
37274;DHT22;23161;51.250;5.554;2023-12-20T11:42:40;7.30;99.90
37274;DHT22;23161;51.250;5.554;2023-12-20T11:45:21;7.30;99.90
37274;DHT22;23161;51.250;5.554;2023-12-20T11:47:50;7.30;99.90
37274;DHT22;23161;51.250;5.554;2023-12-20T11:50:17;7.30;99.90
37274;DHT22;23161;51.250;5.554;2023-12-20T11:52:43;7.30;99.90
37274;DHT22;23161;51.250;5.554;2023-12-20T11:55:09;7.30;99.90
37274;DHT22;23161;51.250;5.554;2023-12-20T11:57:36;7.30;99.90
37274;DHT22;23161;51.250;5.554;2023-12-20T12:00:03;7.30;99.90
37274;DHT22;23161;51.250;5.554;2023-12-20T12:02:37;7.30;99.90
37274;DHT22;23161;51.250;5.554;2023-12-20T12:05:03;7.40;99.90
37274;DHT22;23161;51.250;5.554;2023-12-20T12:07:31;7.30;99.90
37274;DHT22;23161;51.250;5.554;2023-12-20T12:09:57;7.30;99.90
37274;DHT22;23161;51.250;5.554;2023-12-20T12:12:24;7.40;99.90
37274;DHT22;23161;51.250;5.554;2023-12-20T12:14:51;7.40;99.90
37274;DHT22;23161;51.250;5.554;2023-12-20T12:17:16;7.40;99.90
37274;DHT22;23161;51.250;5.554;2023-12-20T12:19:43;7.40;99.90
37274;DHT22;23161;51.250;5.554;2023-12-20T12:22:10;7.40;99.90
37274;DHT22;23161;51.250;5.554;2023-12-20T12:24:39;7.30;99.90
37274;DHT22;23161;51.250;5.554;2023-12-20T12:27:09;7.40;99.90
37274;DHT22;23161;51.250;5.554;2023-12-20T12:29:35;7.30;99.90
37274;DHT22;23161;51.250;5.554;2023-12-20T12:32:07;7.30;99.90
37274;DHT22;23161;51.250;5.554;2023-12-20T12:34:35;7.30;99.90
37274;DHT22;23161;51.250;5.554;2023-12-20T12:37:03;7.30;99.90
37274;DHT22;23161;51.250;5.554;2023-12-20T12:39:29;7.30;99.90
37274;DHT22;23161;51.250;5.554;2023-12-20T12:41:55;7.40;99.90
37274;DHT22;23161;51.250;5.554;2023-12-20T12:44:21;7.30;99.90
37274;DHT22;23161;51.250;5.554;2023-12-20T12:46:49;7.30;99.90
37274;DHT22;23161;51.250;5.554;2023-12-20T12:49:20;7.40;99.90
37274;DHT22;23161;51.250;5.554;2023-12-20T12:51:47;7.40;99.90
37274;DHT22;23161;51.250;5.554;2023-12-20T12:56:41;7.60;99.90
37274;DHT22;23161;51.250;5.554;2023-12-20T12:59:07;7.90;99.90
37274;DHT22;23161;51.250;5.554;2023-12-20T13:01:32;7.70;99.90
37274;DHT22;23161;51.250;5.554;2023-12-20T13:03:59;7.80;99.90
37274;DHT22;23161;51.250;5.554;2023-12-20T13:06:27;7.80;99.90
37274;DHT22;23161;51.250;5.554;2023-12-20T13:08:52;7.60;99.90
37274;DHT22;23161;51.250;5.554;2023-12-20T13:13:44;7.70;99.90
37274;DHT22;23161;51.250;5.554;2023-12-20T13:16:10;8.10;99.90
37274;DHT22;23161;51.250;5.554;2023-12-20T13:18:36;7.70;99.90
37274;DHT22;23161;51.250;5.554;2023-12-20T13:21:03;7.70;99.90
37274;DHT22;23161;51.250;5.554;2023-12-20T13:23:29;7.70;99.90
37274;DHT22;23161;51.250;5.554;2023-12-20T13:28:20;7.70;99.90
37274;DHT22;23161;51.250;5.554;2023-12-20T13:30:46;7.70;99.90
37274;DHT22;23161;51.250;5.554;2023-12-20T13:33:12;7.70;99.90
37274;DHT22;23161;51.250;5.554;2023-12-20T13:35:38;7.70;99.90
37274;DHT22;23161;51.250;5.554;2023-12-20T13:38:04;7.70;99.90
37274;DHT22;23161;51.250;5.554;2023-12-20T13:40:30;7.70;99.90
37274;DHT22;23161;51.250;5.554;2023-12-20T13:42:57;7.70;99.90
37274;DHT22;23161;51.250;5.554;2023-12-20T13:45:22;7.70;99.90
37274;DHT22;23161;51.250;5.554;2023-12-20T13:47:48;7.80;99.90
37274;DHT22;23161;51.250;5.554;2023-12-20T13:50:15;7.70;99.90
37274;DHT22;23161;51.250;5.554;2023-12-20T13:52:40;7.70;99.90
37274;DHT22;23161;51.250;5.554;2023-12-20T13:55:06;7.40;99.90
37274;DHT22;23161;51.250;5.554;2023-12-20T13:57:33;7.80;99.90
37274;DHT22;23161;51.250;5.554;2023-12-20T14:00:03;7.80;99.90
37274;DHT22;23161;51.250;5.554;2023-12-20T14:02:32;7.70;99.90
37274;DHT22;23161;51.250;5.554;2023-12-20T14:04:58;7.80;99.90
37274;DHT22;23161;51.250;5.554;2023-12-20T14:07:24;7.80;99.90
37274;DHT22;23161;51.250;5.554;2023-12-20T14:09:50;7.80;99.90
37274;DHT22;23161;51.250;5.554;2023-12-20T14:12:15;7.80;99.90
37274;DHT22;23161;51.250;5.554;2023-12-20T14:14:41;7.80;99.90
37274;DHT22;23161;51.250;5.554;2023-12-20T14:17:07;7.80;99.90
37274;DHT22;23161;51.250;5.554;2023-12-20T14:19:33;7.70;99.90
37274;DHT22;23161;51.250;5.554;2023-12-20T14:21:58;7.80;99.90
37274;DHT22;23161;51.250;5.554;2023-12-20T14:24:28;7.70;99.90
37274;DHT22;23161;51.250;5.554;2023-12-20T14:26:54;7.70;99.90
37274;DHT22;23161;51.250;5.554;2023-12-20T14:29:19;7.50;99.90
37274;DHT22;23161;51.250;5.554;2023-12-20T14:31:45;7.70;99.90
37274;DHT22;23161;51.250;5.554;2023-12-20T14:34:11;7.70;99.90
37274;DHT22;23161;51.250;5.554;2023-12-20T14:36:37;7.70;99.90
37274;DHT22;23161;51.250;5.554;2023-12-20T14:39:05;7.30;99.90
37274;DHT22;23161;51.250;5.554;2023-12-20T14:41:31;7.80;99.90
37274;DHT22;23161;51.250;5.554;2023-12-20T14:43:57;7.80;99.90
37274;DHT22;23161;51.250;5.554;2023-12-20T14:46:23;7.90;99.90
37274;DHT22;23161;51.250;5.554;2023-12-20T14:48:48;7.80;99.90
37274;DHT22;23161;51.250;5.554;2023-12-20T14:51:15;7.80;99.90
37274;DHT22;23161;51.250;5.554;2023-12-20T14:53:41;7.80;99.90
37274;DHT22;23161;51.250;5.554;2023-12-20T14:56:08;7.80;99.90
37274;DHT22;23161;51.250;5.554;2023-12-20T14:58:34;7.80;99.90
37274;DHT22;23161;51.250;5.554;2023-12-20T15:01:00;7.80;99.90
37274;DHT22;23161;51.250;5.554;2023-12-20T15:03:26;7.80;99.90
37274;DHT22;23161;51.250;5.554;2023-12-20T15:05:52;7.80;99.90
37274;DHT22;23161;51.250;5.554;2023-12-20T15:08:18;7.90;99.90
37274;DHT22;23161;51.250;5.554;2023-12-20T15:10:44;7.90;99.90
37274;DHT22;23161;51.250;5.554;2023-12-20T15:13:09;7.90;99.90
37274;DHT22;23161;51.250;5.554;2023-12-20T15:15:36;7.90;99.90
37274;DHT22;23161;51.250;5.554;2023-12-20T15:18:03;7.90;99.90
37274;DHT22;23161;51.250;5.554;2023-12-20T15:20:29;7.90;99.90
37274;DHT22;23161;51.250;5.554;2023-12-20T15:22:55;8.00;99.90
37274;DHT22;23161;51.250;5.554;2023-12-20T15:25:24;8.10;99.90
37274;DHT22;23161;51.250;5.554;2023-12-20T15:30:19;7.90;99.90
37274;DHT22;23161;51.250;5.554;2023-12-20T15:32:45;8.00;99.90
37274;DHT22;23161;51.250;5.554;2023-12-20T15:37:40;8.00;99.90
37274;DHT22;23161;51.250;5.554;2023-12-20T15:40:08;8.00;99.90
37274;DHT22;23161;51.250;5.554;2023-12-20T15:42:38;8.00;99.90
37274;DHT22;23161;51.250;5.554;2023-12-20T15:45:06;8.00;99.90
37274;DHT22;23161;51.250;5.554;2023-12-20T15:47:33;8.00;99.90
37274;DHT22;23161;51.250;5.554;2023-12-20T15:50:01;8.10;99.90
37274;DHT22;23161;51.250;5.554;2023-12-20T15:52:27;8.00;99.90
37274;DHT22;23161;51.250;5.554;2023-12-20T15:54:52;8.00;99.90
37274;DHT22;23161;51.250;5.554;2023-12-20T15:57:20;8.10;99.90
37274;DHT22;23161;51.250;5.554;2023-12-20T15:59:45;8.00;99.90
37274;DHT22;23161;51.250;5.554;2023-12-20T16:02:11;8.00;99.90
37274;DHT22;23161;51.250;5.554;2023-12-20T16:04:37;8.00;99.90
37274;DHT22;23161;51.250;5.554;2023-12-20T16:07:03;8.00;99.90
37274;DHT22;23161;51.250;5.554;2023-12-20T16:11:55;8.00;99.90
37274;DHT22;23161;51.250;5.554;2023-12-20T16:14:20;7.70;99.90
37274;DHT22;23161;51.250;5.554;2023-12-20T16:16:47;7.90;99.90
37274;DHT22;23161;51.250;5.554;2023-12-20T16:19:15;7.90;99.90
37274;DHT22;23161;51.250;5.554;2023-12-20T16:21:40;7.90;99.90
37274;DHT22;23161;51.250;5.554;2023-12-20T16:24:07;7.90;99.90
37274;DHT22;23161;51.250;5.554;2023-12-20T16:26:33;7.90;99.90
37274;DHT22;23161;51.250;5.554;2023-12-20T16:29:00;7.90;99.90
37274;DHT22;23161;51.250;5.554;2023-12-20T16:31:25;7.90;99.90
37274;DHT22;23161;51.250;5.554;2023-12-20T16:33:51;7.90;99.90
37274;DHT22;23161;51.250;5.554;2023-12-20T16:36:18;7.90;99.90
37274;DHT22;23161;51.250;5.554;2023-12-20T16:38:44;7.90;99.90
37274;DHT22;23161;51.250;5.554;2023-12-20T16:41:10;7.90;99.90
37274;DHT22;23161;51.250;5.554;2023-12-20T16:43:35;7.80;99.90
37274;DHT22;23161;51.250;5.554;2023-12-20T16:46:01;7.80;99.90
37274;DHT22;23161;51.250;5.554;2023-12-20T16:48:28;7.80;99.90
37274;DHT22;23161;51.250;5.554;2023-12-20T16:50:54;7.90;99.90
37274;DHT22;23161;51.250;5.554;2023-12-20T16:53:19;7.80;99.90
37274;DHT22;23161;51.250;5.554;2023-12-20T16:55:46;7.90;99.90
37274;DHT22;23161;51.250;5.554;2023-12-20T16:58:12;7.90;99.90
37274;DHT22;23161;51.250;5.554;2023-12-20T17:00:38;7.80;99.90
37274;DHT22;23161;51.250;5.554;2023-12-20T17:03:06;7.90;99.90
37274;DHT22;23161;51.250;5.554;2023-12-20T17:05:32;7.90;99.90
37274;DHT22;23161;51.250;5.554;2023-12-20T17:07:57;7.90;99.90
37274;DHT22;23161;51.250;5.554;2023-12-20T17:10:23;7.90;99.90
37274;DHT22;23161;51.250;5.554;2023-12-20T17:12:49;7.80;99.90
37274;DHT22;23161;51.250;5.554;2023-12-20T17:15:16;7.80;99.90
37274;DHT22;23161;51.250;5.554;2023-12-20T17:17:42;7.80;99.90
37274;DHT22;23161;51.250;5.554;2023-12-20T17:20:08;7.80;99.90
37274;DHT22;23161;51.250;5.554;2023-12-20T17:22:34;7.90;99.90
37274;DHT22;23161;51.250;5.554;2023-12-20T17:24:59;7.90;99.90
37274;DHT22;23161;51.250;5.554;2023-12-20T17:27:25;7.90;99.90
37274;DHT22;23161;51.250;5.554;2023-12-20T17:29:51;7.90;99.90
37274;DHT22;23161;51.250;5.554;2023-12-20T17:32:16;8.00;99.90
37274;DHT22;23161;51.250;5.554;2023-12-20T17:34:42;8.00;99.90
37274;DHT22;23161;51.250;5.554;2023-12-20T17:37:08;8.00;99.90
37274;DHT22;23161;51.250;5.554;2023-12-20T17:39:34;8.00;99.90
37274;DHT22;23161;51.250;5.554;2023-12-20T17:42:00;8.10;99.90
37274;DHT22;23161;51.250;5.554;2023-12-20T17:44:26;7.80;99.90
37274;DHT22;23161;51.250;5.554;2023-12-20T17:46:52;8.20;99.90
37274;DHT22;23161;51.250;5.554;2023-12-20T17:49:18;8.20;99.90
37274;DHT22;23161;51.250;5.554;2023-12-20T17:51:47;8.20;99.90
37274;DHT22;23161;51.250;5.554;2023-12-20T17:54:13;8.10;99.90